Time;durP1;ratioP1;P1;durP2;ratioP2;P2;SDS_P1;SDS_P2;PMS_P1;PMS_P2;Temp;Humidity;BMP_temperature;BMP_pressure;BME280_temperature;BME280_humidity;BME280_pressure;Samples;Min_cycle;Max_cycle;Signal;HPM_P1;HPM_P2
2024/01/09 06:00:27;;;;;;;21.60;8.73;;;;;;;;;;6030680;23;20461;-74
2024/01/09 06:02:53;;;;;;;20.23;9.37;;;;;;;;;;4993329;28;20724;-75
2024/01/09 06:05:19;;;;;;;29.23;10.13;;;;;;;;;;4994825;28;20439;-75
2024/01/09 06:07:45;;;;;;;18.97;9.97;;;;;;;;;;4995470;28;20766;-75
2024/01/09 06:10:11;;;;;;;23.87;10.10;;;;;;;;;;4992893;28;20441;-75
2024/01/09 06:12:37;;;;;;;23.43;10.93;;;;;;;;;;4994111;28;20519;-75
2024/01/09 06:15:03;;;;;;;28.40;11.23;;;;;;;;;;4994167;28;20419;-74
2024/01/09 06:17:29;;;;;;;28.43;10.50;;;;;;;;;;4994049;28;20407;-74
2024/01/09 06:19:55;;;;;;;23.60;10.53;;;;;;;;;;4993960;28;20469;-74
2024/01/09 06:22:21;;;;;;;27.53;11.03;;;;;;;;;;4992315;28;20447;-75
2024/01/09 06:24:47;;;;;;;27.03;10.70;;;;;;;;;;4994280;28;20415;-74
2024/01/09 06:27:13;;;;;;;28.20;11.20;;;;;;;;;;4993858;28;20431;-74
2024/01/09 06:29:39;;;;;;;30.67;12.80;;;;;;;;;;4993721;28;20415;-74
2024/01/09 06:32:05;;;;;;;24.87;11.23;;;;;;;;;;4993625;28;20441;-74
2024/01/09 06:34:34;;;;;;;32.80;10.80;;;;;;;;;;4992612;28;20421;-74
2024/01/09 06:37:00;;;;;;;26.63;10.33;;;;;;;;;;4993389;28;20450;-74
2024/01/09 06:39:25;;;;;;;21.70;9.97;;;;;;;;;;4993257;28;20490;-75
2024/01/09 06:41:51;;;;;;;23.77;9.10;;;;;;;;;;4993434;28;20431;-74
2024/01/09 06:44:17;;;;;;;29.40;11.93;;;;;;;;;;4993556;28;20404;-74
2024/01/09 06:46:43;;;;;;;21.30;10.10;;;;;;;;;;4994778;28;20411;-74
2024/01/09 06:49:09;;;;;;;30.10;9.57;;;;;;;;;;4994254;28;20900;-74
2024/01/09 06:51:35;;;;;;;40.10;11.30;;;;;;;;;;4997317;28;20431;-74
2024/01/09 06:54:01;;;;;;;22.83;9.70;;;;;;;;;;4994243;28;20407;-74
2024/01/09 06:56:27;;;;;;;26.67;10.93;;;;;;;;;;5008406;28;20906;-74
2024/01/09 06:58:54;;;;;;;24.43;10.13;;;;;;;;;;4993204;28;20477;-74
2024/01/09 07:01:20;;;;;;;32.43;12.30;;;;;;;;;;4993139;28;20454;-74
2024/01/09 07:03:46;;;;;;;26.37;10.57;;;;;;;;;;4993095;28;20410;-74
2024/01/09 07:06:12;;;;;;;26.80;10.67;;;;;;;;;;4992894;28;20567;-73
2024/01/09 07:08:38;;;;;;;30.40;11.60;;;;;;;;;;4993042;28;20426;-74
2024/01/09 07:11:04;;;;;;;23.90;10.30;;;;;;;;;;4991583;28;20438;-73
2024/01/09 07:13:30;;;;;;;23.10;11.23;;;;;;;;;;4992940;28;20498;-74
2024/01/09 07:15:57;;;;;;;24.50;11.53;;;;;;;;;;4992596;28;20510;-74
2024/01/09 07:18:24;;;;;;;30.27;12.50;;;;;;;;;;4992637;28;20554;-74
2024/01/09 07:20:50;;;;;;;28.53;11.37;;;;;;;;;;4992834;28;20494;-74
2024/01/09 07:23:16;;;;;;;31.23;10.00;;;;;;;;;;4992756;28;20422;-73
2024/01/09 07:25:42;;;;;;;29.70;11.00;;;;;;;;;;4992620;28;20407;-74
2024/01/09 07:28:08;;;;;;;35.00;12.20;;;;;;;;;;4992721;28;20489;-74
2024/01/09 07:30:34;;;;;;;28.77;10.77;;;;;;;;;;4991450;28;20447;-74
2024/01/09 07:33:00;;;;;;;24.90;11.33;;;;;;;;;;4992583;28;20426;-75
2024/01/09 07:35:26;;;;;;;29.10;11.23;;;;;;;;;;4992409;28;20542;-73
2024/01/09 07:37:52;;;;;;;23.53;10.40;;;;;;;;;;4992624;28;20423;-73
2024/01/09 07:40:18;;;;;;;22.23;10.17;;;;;;;;;;4992680;28;20466;-74
2024/01/09 07:42:44;;;;;;;29.53;11.60;;;;;;;;;;4992495;28;20439;-74
2024/01/09 07:45:11;;;;;;;29.40;10.93;;;;;;;;;;4991994;28;20429;-74
2024/01/09 07:47:37;;;;;;;25.07;10.20;;;;;;;;;;4992836;28;20414;-73
2024/01/09 07:50:03;;;;;;;26.40;11.43;;;;;;;;;;4992242;28;20426;-73
2024/01/09 07:52:29;;;;;;;22.90;9.60;;;;;;;;;;4992512;28;20774;-74
2024/01/09 07:54:55;;;;;;;22.77;10.77;;;;;;;;;;4992066;28;20418;-74
2024/01/09 07:57:24;;;;;;;25.97;12.13;;;;;;;;;;4992296;28;20411;-73
2024/01/09 07:59:50;;;;;;;26.50;11.63;;;;;;;;;;4992274;28;20469;-75
2024/01/09 08:02:16;;;;;;;26.40;11.27;;;;;;;;;;4992053;28;20454;-75
2024/01/09 08:04:42;;;;;;;30.23;11.20;;;;;;;;;;4992076;28;20451;-74
2024/01/09 08:07:08;;;;;;;20.57;9.87;;;;;;;;;;4992388;28;20415;-75
2024/01/09 08:09:34;;;;;;;21.57;10.60;;;;;;;;;;4992377;28;20918;-74
2024/01/09 08:12:00;;;;;;;27.67;10.80;;;;;;;;;;4992002;28;20922;-75
2024/01/09 08:14:26;;;;;;;24.63;10.33;;;;;;;;;;4990939;28;20826;-74
2024/01/09 08:16:52;;;;;;;24.97;10.23;;;;;;;;;;4992097;28;20429;-75
2024/01/09 08:19:18;;;;;;;27.33;11.73;;;;;;;;;;4992220;28;20961;-74
2024/01/09 08:21:44;;;;;;;30.20;11.60;;;;;;;;;;4990859;28;20438;-75
2024/01/09 08:24:18;;;;;;;32.00;11.70;;;;;;;;;;4991762;28;20423;-74
2024/01/09 08:26:47;;;;;;;31.30;11.43;;;;;;;;;;4993146;28;20410;-74
2024/01/09 08:29:13;;;;;;;30.87;12.10;;;;;;;;;;4993319;28;20578;-74
2024/01/09 08:31:43;;;;;;;26.03;10.60;;;;;;;;;;4990757;28;20528;-74
2024/01/09 08:34:09;;;;;;;24.33;9.43;;;;;;;;;;4992425;28;20473;-75
2024/01/09 08:36:35;;;;;;;38.20;12.37;;;;;;;;;;4992231;28;20407;-75
2024/01/09 08:39:02;;;;;;;30.53;10.97;;;;;;;;;;4992388;28;20481;-74
2024/01/09 08:41:28;;;;;;;26.97;11.63;;;;;;;;;;4992041;28;20598;-74
2024/01/09 08:43:54;;;;;;;28.20;11.30;;;;;;;;;;4990635;28;20423;-75
2024/01/09 08:46:19;;;;;;;30.50;10.70;;;;;;;;;;4991986;28;20808;-76
2024/01/09 08:48:46;;;;;;;26.13;9.93;;;;;;;;;;4991923;28;20890;-75
2024/01/09 08:51:12;;;;;;;27.50;11.70;;;;;;;;;;4991813;28;20824;-75
2024/01/09 08:53:38;;;;;;;24.60;10.67;;;;;;;;;;4991842;28;20498;-75
2024/01/09 08:56:04;;;;;;;26.77;9.90;;;;;;;;;;4991621;28;20448;-74
2024/01/09 08:58:31;;;;;;;37.03;12.17;;;;;;;;;;4995386;28;20853;-74
2024/01/09 09:00:57;;;;;;;26.07;12.10;;;;;;;;;;4995396;28;20451;-74
2024/01/09 09:03:23;;;;;;;29.07;11.50;;;;;;;;;;4996301;28;20418;-74
2024/01/09 09:05:49;;;;;;;27.97;10.83;;;;;;;;;;4995645;28;20407;-74
2024/01/09 09:08:15;;;;;;;22.97;10.87;;;;;;;;;;4995429;28;20415;-74
2024/01/09 09:10:41;;;;;;;24.60;11.77;;;;;;;;;;4995109;28;20565;-75
2024/01/09 09:13:07;;;;;;;23.20;11.10;;;;;;;;;;4995092;28;20415;-74
2024/01/09 09:15:33;;;;;;;25.13;11.03;;;;;;;;;;4994882;28;20894;-74
2024/01/09 09:17:59;;;;;;;27.13;10.73;;;;;;;;;;4994939;28;20416;-74
2024/01/09 09:20:25;;;;;;;26.90;11.50;;;;;;;;;;4994668;28;20469;-75
2024/01/09 09:22:51;;;;;;;27.87;11.63;;;;;;;;;;4994956;28;20407;-75
2024/01/09 09:25:17;;;;;;;25.97;10.70;;;;;;;;;;4994533;28;20410;-73
2024/01/09 09:27:45;;;;;;;25.00;10.93;;;;;;;;;;4995264;28;20410;-74
2024/01/09 09:30:12;;;;;;;26.10;11.33;;;;;;;;;;4994763;28;20411;-75
2024/01/09 09:32:38;;;;;;;21.63;10.50;;;;;;;;;;4994835;28;20424;-74
2024/01/09 09:35:04;;;;;;;22.63;11.00;;;;;;;;;;4994459;28;20416;-74
2024/01/09 09:37:30;;;;;;;25.30;11.67;;;;;;;;;;4996059;28;20415;-74
2024/01/09 09:39:56;;;;;;;26.17;11.17;;;;;;;;;;4993742;28;20802;-74
2024/01/09 09:42:22;;;;;;;32.10;12.77;;;;;;;;;;4994968;28;20430;-74
2024/01/09 09:44:51;;;;;;;25.47;10.63;;;;;;;;;;4995165;28;20417;-75
2024/01/09 09:47:17;;;;;;;27.43;11.20;;;;;;;;;;4994859;28;20422;-74
2024/01/09 09:49:45;;;;;;;22.97;12.00;;;;;;;;;;4995110;28;20813;-75
2024/01/09 09:52:12;;;;;;;29.23;11.80;;;;;;;;;;4994617;28;20509;-75
2024/01/09 09:54:39;;;;;;;33.23;12.43;;;;;;;;;;4994436;28;20413;-74
2024/01/09 09:57:05;;;;;;;30.73;12.73;;;;;;;;;;4995132;28;20455;-74
2024/01/09 09:59:31;;;;;;;24.00;10.17;;;;;;;;;;4994694;28;20466;-74
2024/01/09 10:01:58;;;;;;;27.83;10.37;;;;;;;;;;4994413;28;20457;-74
2024/01/09 10:04:29;;;;;;;30.40;12.57;;;;;;;;;;4994118;28;20752;-74
2024/01/09 10:06:58;;;;;;;23.47;10.70;;;;;;;;;;4994240;28;20407;-74
2024/01/09 10:09:29;;;;;;;28.63;11.77;;;;;;;;;;4992897;28;20419;-74
2024/01/09 10:11:55;;;;;;;20.43;9.80;;;;;;;;;;4994103;28;20431;-74
2024/01/09 10:14:21;;;;;;;27.77;11.10;;;;;;;;;;5008980;28;20477;-74
2024/01/09 10:16:53;;;;;;;26.60;10.73;;;;;;;;;;4992774;28;20418;-74
2024/01/09 10:19:21;;;;;;;31.50;11.10;;;;;;;;;;4994116;28;20457;-74
2024/01/09 10:21:47;;;;;;;20.80;10.53;;;;;;;;;;4993688;28;20458;-74
2024/01/09 10:24:14;;;;;;;23.77;11.80;;;;;;;;;;4993786;28;20442;-74
2024/01/09 10:26:40;;;;;;;32.07;10.67;;;;;;;;;;4993886;28;20821;-74
2024/01/09 10:29:09;;;;;;;32.53;12.47;;;;;;;;;;4993710;28;20418;-74
2024/01/09 10:31:34;;;;;;;32.13;11.27;;;;;;;;;;4993591;28;20435;-74
2024/01/09 10:34:00;;;;;;;28.80;12.30;;;;;;;;;;4992104;28;20430;-74
2024/01/09 10:36:27;;;;;;;30.60;11.27;;;;;;;;;;4993589;28;20415;-74
2024/01/09 10:39:04;;;;;;;28.73;11.70;;;;;;;;;;4993832;28;20462;-73
2024/01/09 10:41:30;;;;;;;24.20;10.53;;;;;;;;;;4993426;28;20445;-74
2024/01/09 10:43:56;;;;;;;26.03;11.67;;;;;;;;;;4993302;28;20902;-73
2024/01/09 10:46:25;;;;;;;28.03;11.70;;;;;;;;;;4993213;28;20443;-72
2024/01/09 10:48:52;;;;;;;24.27;10.67;;;;;;;;;;4993183;28;20411;-74
2024/01/09 10:51:19;;;;;;;24.80;10.90;;;;;;;;;;4993034;28;20517;-74
2024/01/09 10:53:48;;;;;;;22.00;10.50;;;;;;;;;;4993065;28;20454;-73
2024/01/09 10:56:18;;;;;;;31.17;11.07;;;;;;;;;;4993237;28;20411;-73
2024/01/09 10:58:47;;;;;;;26.63;12.10;;;;;;;;;;4993204;28;20495;-73
2024/01/09 11:01:13;;;;;;;27.43;11.37;;;;;;;;;;4992957;28;20455;-73
2024/01/09 11:03:40;;;;;;;26.77;9.90;;;;;;;;;;4993367;28;20399;-73
2024/01/09 11:06:07;;;;;;;22.80;10.67;;;;;;;;;;4992972;28;20407;-73
2024/01/09 11:08:37;;;;;;;28.10;10.70;;;;;;;;;;4993130;28;20438;-73
2024/01/09 11:11:03;;;;;;;26.40;11.50;;;;;;;;;;4992983;28;20961;-73
2024/01/09 11:13:30;;;;;;;27.97;11.57;;;;;;;;;;4994947;28;20756;-72
2024/01/09 11:15:57;;;;;;;26.90;12.07;;;;;;;;;;4994350;28;20415;-73
2024/01/09 11:18:23;;;;;;;32.00;12.00;;;;;;;;;;4993190;28;20415;-73
2024/01/09 11:21:01;;;;;;;26.00;10.50;;;;;;;;;;4992338;28;20964;-73
2024/01/09 11:23:42;;;;;;;28.80;10.53;;;;;;;;;;4992926;28;20418;-73
2024/01/09 11:26:08;;;;;;;29.83;10.73;;;;;;;;;;4992614;28;20415;-73
2024/01/09 11:28:39;;;;;;;23.10;9.97;;;;;;;;;;4992802;28;20623;-73
2024/01/09 11:31:06;;;;;;;27.07;11.00;;;;;;;;;;4992641;28;20434;-73
2024/01/09 11:33:32;;;;;;;23.00;10.83;;;;;;;;;;4992836;28;20444;-73
2024/01/09 11:36:05;;;;;;;26.73;11.27;;;;;;;;;;4992706;28;20415;-73
2024/01/09 11:38:31;;;;;;;26.63;11.43;;;;;;;;;;4992744;28;20411;-72
2024/01/09 11:41:03;;;;;;;21.57;10.70;;;;;;;;;;4991162;28;20857;-73
2024/01/09 11:43:29;;;;;;;23.77;9.70;;;;;;;;;;4992901;28;20407;-72
2024/01/09 11:45:55;;;;;;;23.90;10.43;;;;;;;;;;4992770;28;20438;-73
2024/01/09 11:48:21;;;;;;;29.23;10.67;;;;;;;;;;4992968;28;20438;-73
2024/01/09 11:50:47;;;;;;;24.13;9.63;;;;;;;;;;4992721;28;20430;-73
2024/01/09 11:53:13;;;;;;;29.73;10.60;;;;;;;;;;4992756;28;20424;-72
2024/01/09 11:55:39;;;;;;;26.50;10.50;;;;;;;;;;4992690;28;20424;-73
2024/01/09 11:58:06;;;;;;;19.70;8.87;;;;;;;;;;4992921;28;20852;-72
2024/01/09 12:00:35;;;;;;;26.77;10.17;;;;;;;;;;4994618;28;20485;-73
2024/01/09 12:03:01;;;;;;;29.77;10.57;;;;;;;;;;4994563;28;20410;-74
2024/01/09 12:05:27;;;;;;;22.47;10.27;;;;;;;;;;4992499;28;20422;-73
2024/01/09 12:07:53;;;;;;;26.40;10.57;;;;;;;;;;4992434;28;20527;-74
2024/01/09 12:10:19;;;;;;;23.40;10.10;;;;;;;;;;4992377;28;20928;-74
2024/01/09 12:12:45;;;;;;;26.20;10.10;;;;;;;;;;4992566;28;20403;-74
2024/01/09 12:15:19;;;;;;;22.73;10.03;;;;;;;;;;5011703;23;20994;-73
2024/01/09 12:17:52;;;;;;;31.10;11.57;;;;;;;;;;4978133;28;20400;-74
2024/01/09 12:20:18;;;;;;;24.93;10.37;;;;;;;;;;4979805;28;20456;-73
2024/01/09 12:22:44;;;;;;;22.37;10.03;;;;;;;;;;4980104;28;20414;-73
2024/01/09 12:25:10;;;;;;;20.77;8.57;;;;;;;;;;4979832;28;20515;-74
2024/01/09 12:27:36;;;;;;;22.27;10.37;;;;;;;;;;4977762;28;20837;-74
2024/01/09 12:30:02;;;;;;;21.97;10.40;;;;;;;;;;4976235;28;20420;-74
2024/01/09 12:32:30;;;;;;;18.40;9.50;;;;;;;;;;4976921;28;20829;-74
2024/01/09 12:34:56;;;;;;;23.23;10.37;;;;;;;;;;4979988;28;20446;-72
2024/01/09 12:37:22;;;;;;;22.77;9.73;;;;;;;;;;4980198;28;20416;-73
2024/01/09 12:39:56;;;;;;;22.90;9.93;;;;;;;;;;4996075;28;20468;-74
2024/01/09 12:42:22;;;;;;;22.70;10.00;;;;;;;;;;4996140;28;20449;-74
2024/01/09 12:44:48;;;;;;;22.00;8.77;;;;;;;;;;4981078;28;20473;-74
2024/01/09 12:47:14;;;;;;;23.60;10.50;;;;;;;;;;4983929;28;20446;-73
2024/01/09 12:49:47;;;;;;;26.50;10.30;;;;;;;;;;4993984;28;20432;-74
2024/01/09 12:52:13;;;;;;;25.67;9.90;;;;;;;;;;4985634;28;20408;-73
2024/01/09 12:54:42;;;;;;;24.83;9.53;;;;;;;;;;4988325;28;20458;-74
2024/01/09 12:57:10;;;;;;;19.87;10.47;;;;;;;;;;4993158;28;20411;-74
2024/01/09 12:59:36;;;;;;;20.13;9.17;;;;;;;;;;4994944;28;20807;-73
2024/01/09 13:02:03;;;;;;;23.83;10.37;;;;;;;;;;4989214;28;20419;-73
2024/01/09 13:04:29;;;;;;;27.70;10.27;;;;;;;;;;4976287;28;20898;-74
2024/01/09 13:06:55;;;;;;;19.30;9.10;;;;;;;;;;4976318;28;20409;-74
2024/01/09 13:09:21;;;;;;;20.90;10.70;;;;;;;;;;4976684;28;20852;-74
2024/01/09 13:11:47;;;;;;;21.10;8.80;;;;;;;;;;4977394;28;20441;-74
2024/01/09 13:14:14;;;;;;;25.40;9.63;;;;;;;;;;4977859;28;20454;-74
2024/01/09 13:16:40;;;;;;;23.70;11.30;;;;;;;;;;4976615;28;20950;-74
2024/01/09 13:19:06;;;;;;;25.37;9.87;;;;;;;;;;4976133;28;20459;-74
2024/01/09 13:21:33;;;;;;;20.93;9.13;;;;;;;;;;4976389;28;20409;-75
2024/01/09 13:23:59;;;;;;;22.87;8.90;;;;;;;;;;4976382;28;20503;-74
2024/01/09 13:26:25;;;;;;;23.80;10.33;;;;;;;;;;4986370;28;20431;-74
2024/01/09 13:28:51;;;;;;;24.77;10.17;;;;;;;;;;4987242;28;20419;-73
2024/01/09 13:31:17;;;;;;;24.57;10.70;;;;;;;;;;4988731;28;20419;-73
2024/01/09 13:33:43;;;;;;;21.03;9.60;;;;;;;;;;4988154;28;20404;-73
2024/01/09 13:36:09;;;;;;;18.00;8.70;;;;;;;;;;5003580;28;20442;-74
2024/01/09 13:38:38;;;;;;;23.53;9.70;;;;;;;;;;4988419;28;20411;-75
2024/01/09 13:41:04;;;;;;;17.90;9.00;;;;;;;;;;4976507;28;20427;-73
2024/01/09 13:43:31;;;;;;;19.13;9.67;;;;;;;;;;4975702;28;20408;-73
2024/01/09 13:46:02;;;;;;;20.57;9.57;;;;;;;;;;4996466;28;20743;-74
2024/01/09 13:48:28;;;;;;;23.50;8.70;;;;;;;;;;4983471;28;20406;-73
2024/01/09 13:50:55;;;;;;;18.33;9.60;;;;;;;;;;4982289;28;20431;-74
2024/01/09 13:53:21;;;;;;;18.10;9.13;;;;;;;;;;4978126;28;20903;-74
2024/01/09 13:55:47;;;;;;;24.33;10.40;;;;;;;;;;4975798;28;20478;-74
2024/01/09 13:58:14;;;;;;;18.10;8.93;;;;;;;;;;4975502;28;20412;-74
2024/01/09 14:00:40;;;;;;;27.77;9.10;;;;;;;;;;4975192;28;20459;-74
2024/01/09 14:03:06;;;;;;;21.73;10.63;;;;;;;;;;4975783;28;20418;-74
2024/01/09 14:05:32;;;;;;;22.13;8.27;;;;;;;;;;4981941;28;20424;-74
2024/01/09 14:07:58;;;;;;;24.80;8.40;;;;;;;;;;4976623;28;20454;-73
2024/01/09 14:10:24;;;;;;;16.93;8.30;;;;;;;;;;4991098;28;20511;-74
2024/01/09 14:12:50;;;;;;;17.30;8.47;;;;;;;;;;4990760;28;20420;-73
2024/01/09 14:15:16;;;;;;;18.23;8.10;;;;;;;;;;4975161;28;20473;-75
2024/01/09 14:17:43;;;;;;;21.57;8.60;;;;;;;;;;4975549;28;20431;-75
2024/01/09 14:20:10;;;;;;;17.77;8.80;;;;;;;;;;4975466;28;20632;-73
2024/01/09 14:22:36;;;;;;;18.27;9.07;;;;;;;;;;4978135;28;20413;-74
2024/01/09 14:25:02;;;;;;;30.17;9.80;;;;;;;;;;4983858;28;20459;-73
2024/01/09 14:27:28;;;;;;;20.23;8.40;;;;;;;;;;4983875;28;20947;-74
2024/01/09 14:29:55;;;;;;;34.27;10.97;;;;;;;;;;4983879;28;20419;-73
2024/01/09 14:32:21;;;;;;;20.00;9.93;;;;;;;;;;4979411;28;20451;-74
2024/01/09 14:34:47;;;;;;;20.53;8.67;;;;;;;;;;4980381;28;20408;-74
2024/01/09 14:37:13;;;;;;;19.43;9.13;;;;;;;;;;4994119;28;20988;-74
2024/01/09 14:39:40;;;;;;;23.77;9.53;;;;;;;;;;4978975;28;20962;-74
2024/01/09 14:42:06;;;;;;;21.73;9.07;;;;;;;;;;4988071;28;20408;-73
2024/01/09 14:44:32;;;;;;;20.50;8.80;;;;;;;;;;4983132;28;20819;-74
2024/01/09 14:47:00;;;;;;;14.00;7.77;;;;;;;;;;4982066;28;20428;-73
2024/01/09 14:49:26;;;;;;;22.83;9.20;;;;;;;;;;4983198;28;20500;-73
2024/01/09 14:51:52;;;;;;;17.03;8.87;;;;;;;;;;4998648;28;20420;-74
2024/01/09 14:54:21;;;;;;;21.77;8.87;;;;;;;;;;4978116;28;20680;-74
2024/01/09 14:56:48;;;;;;;20.57;8.87;;;;;;;;;;4991061;28;20439;-75
2024/01/09 14:59:14;;;;;;;23.23;9.80;;;;;;;;;;4976267;28;20498;-74
2024/01/09 15:01:40;;;;;;;18.80;8.37;;;;;;;;;;4976712;28;20964;-74
2024/01/09 15:04:06;;;;;;;17.30;8.57;;;;;;;;;;4975615;28;20501;-74
2024/01/09 15:06:32;;;;;;;17.30;8.20;;;;;;;;;;4975389;28;20863;-73
2024/01/09 15:08:59;;;;;;;20.67;8.17;;;;;;;;;;4989919;28;20416;-73
2024/01/09 15:11:24;;;;;;;20.83;9.67;;;;;;;;;;4975835;28;20408;-74
2024/01/09 15:13:50;;;;;;;17.50;9.50;;;;;;;;;;4975195;28;20980;-73
2024/01/09 15:16:16;;;;;;;17.47;8.57;;;;;;;;;;4975267;28;20550;-73
2024/01/09 15:18:44;;;;;;;20.57;8.70;;;;;;;;;;4975141;28;20899;-73
2024/01/09 15:21:10;;;;;;;22.40;9.30;;;;;;;;;;4975185;28;20412;-73
2024/01/09 15:23:36;;;;;;;18.00;8.67;;;;;;;;;;4975076;28;20554;-73
2024/01/09 15:26:03;;;;;;;23.30;9.43;;;;;;;;;;4974886;28;20439;-73
2024/01/09 15:28:29;;;;;;;17.30;8.50;;;;;;;;;;4989409;28;20416;-73
2024/01/09 15:30:55;;;;;;;15.10;8.30;;;;;;;;;;4974754;28;20424;-73
2024/01/09 15:33:21;;;;;;;25.80;10.20;;;;;;;;;;4974382;28;20438;-72
2024/01/09 15:35:47;;;;;;;25.67;9.70;;;;;;;;;;4974070;28;20462;-73
2024/01/09 15:38:13;;;;;;;22.83;10.23;;;;;;;;;;4982913;28;20414;-72
2024/01/09 15:40:39;;;;;;;22.43;9.17;;;;;;;;;;4982833;28;20949;-72
2024/01/09 15:43:05;;;;;;;19.67;9.77;;;;;;;;;;4988038;28;20410;-74
2024/01/09 15:45:31;;;;;;;20.30;8.70;;;;;;;;;;5006536;28;20435;-74
2024/01/09 15:47:59;;;;;;;19.47;8.60;;;;;;;;;;4988664;28;20469;-74
2024/01/09 15:50:24;;;;;;;20.97;7.63;;;;;;;;;;4986961;28;20454;-73
2024/01/09 15:52:50;;;;;;;18.77;9.30;;;;;;;;;;5001185;28;20424;-74
2024/01/09 15:55:16;;;;;;;21.90;8.10;;;;;;;;;;4984460;28;20476;-73
2024/01/09 15:57:43;;;;;;;23.60;9.30;;;;;;;;;;4976842;28;20427;-73
2024/01/09 16:00:12;;;;;;;17.97;8.63;;;;;;;;;;4990351;28;20480;-73
2024/01/09 16:02:38;;;;;;;19.67;8.17;;;;;;;;;;4976790;28;20423;-73
2024/01/09 16:05:06;;;;;;;21.43;8.77;;;;;;;;;;4978756;28;20941;-74
2024/01/09 16:07:32;;;;;;;23.80;9.87;;;;;;;;;;4997785;28;20419;-74
2024/01/09 16:09:58;;;;;;;26.43;9.90;;;;;;;;;;4983883;28;20474;-73
2024/01/09 16:12:24;;;;;;;23.87;9.73;;;;;;;;;;4981392;28;20812;-73
2024/01/09 16:14:50;;;;;;;21.23;10.23;;;;;;;;;;4993642;28;20802;-74
2024/01/09 16:17:20;;;;;;;23.10;8.73;;;;;;;;;;4978257;28;20476;-74
2024/01/09 16:19:46;;;;;;;22.60;9.43;;;;;;;;;;4978213;28;20459;-74
2024/01/09 16:22:13;;;;;;;28.50;9.90;;;;;;;;;;4978836;28;20412;-74
2024/01/09 16:24:39;;;;;;;22.47;9.30;;;;;;;;;;4977816;28;20411;-74
2024/01/09 16:27:05;;;;;;;22.83;9.23;;;;;;;;;;4978469;28;20749;-74
2024/01/09 16:29:31;;;;;;;24.23;10.47;;;;;;;;;;4978383;28;20420;-73
2024/01/09 16:31:57;;;;;;;22.80;9.80;;;;;;;;;;4978157;28;20419;-74
2024/01/09 16:34:23;;;;;;;24.83;9.80;;;;;;;;;;4977420;28;20415;-74
2024/01/09 16:36:52;;;;;;;21.93;10.17;;;;;;;;;;4977238;28;20471;-74
2024/01/09 16:39:19;;;;;;;24.67;10.27;;;;;;;;;;4977616;28;20471;-73
2024/01/09 16:41:45;;;;;;;25.63;10.40;;;;;;;;;;4978152;28;20406;-74
2024/01/09 16:44:11;;;;;;;16.97;8.50;;;;;;;;;;4977728;28;20436;-75
2024/01/09 16:46:44;;;;;;;27.67;11.50;;;;;;;;;;4977283;28;20435;-74
2024/01/09 16:49:10;;;;;;;28.70;11.50;;;;;;;;;;4977357;28;20412;-74
2024/01/09 16:51:37;;;;;;;25.73;10.27;;;;;;;;;;4977022;28;20415;-75
2024/01/09 16:54:03;;;;;;;21.50;10.03;;;;;;;;;;4977806;28;20458;-75
2024/01/09 16:56:29;;;;;;;21.70;9.30;;;;;;;;;;4979246;28;20443;-73
2024/01/09 16:58:55;;;;;;;26.83;12.80;;;;;;;;;;4982863;28;20416;-74
2024/01/09 17:01:27;;;;;;;24.00;10.90;;;;;;;;;;4979135;28;20419;-73
2024/01/09 17:03:53;;;;;;;26.37;10.70;;;;;;;;;;4975552;28;20411;-73
2024/01/09 17:06:19;;;;;;;22.10;9.60;;;;;;;;;;4977183;28;20911;-74
2024/01/09 17:08:45;;;;;;;28.57;9.80;;;;;;;;;;4976663;28;20443;-73
2024/01/09 17:11:13;;;;;;;26.83;9.73;;;;;;;;;;4976735;28;20443;-73
2024/01/09 17:13:40;;;;;;;24.47;10.27;;;;;;;;;;4977048;28;20440;-75
2024/01/09 17:16:08;;;;;;;21.30;9.97;;;;;;;;;;4975104;28;20514;-73
2024/01/09 17:18:35;;;;;;;19.10;8.50;;;;;;;;;;4975693;28;20498;-73
2024/01/09 17:21:01;;;;;;;26.23;11.10;;;;;;;;;;4976159;28;20475;-74
2024/01/09 17:23:27;;;;;;;22.70;10.00;;;;;;;;;;4976466;28;20435;-74
2024/01/09 17:25:53;;;;;;;27.97;10.20;;;;;;;;;;4976375;28;20432;-75
2024/01/09 17:28:20;;;;;;;18.30;8.70;;;;;;;;;;4976673;28;20472;-74
2024/01/09 17:30:46;;;;;;;24.50;9.90;;;;;;;;;;4991092;28;20451;-74
2024/01/09 17:33:12;;;;;;;25.93;11.33;;;;;;;;;;4991451;28;20427;-74
2024/01/09 17:35:39;;;;;;;24.30;10.10;;;;;;;;;;4975858;28;20510;-73
2024/01/09 17:38:05;;;;;;;22.37;11.50;;;;;;;;;;4976028;28;20407;-73
2024/01/09 17:40:31;;;;;;;21.57;10.43;;;;;;;;;;4975711;28;20498;-75
2024/01/09 17:42:57;;;;;;;27.53;11.13;;;;;;;;;;4975903;28;20404;-73
2024/01/09 17:45:22;;;;;;;24.03;10.37;;;;;;;;;;4975315;28;20424;-73
2024/01/09 17:47:48;;;;;;;23.60;11.13;;;;;;;;;;4975911;28;20416;-73
2024/01/09 17:50:15;;;;;;;31.70;11.43;;;;;;;;;;4975479;28;20474;-74
2024/01/09 17:52:41;;;;;;;20.60;10.33;;;;;;;;;;4975748;28;20416;-73
2024/01/09 17:55:08;;;;;;;22.00;10.97;;;;;;;;;;4975266;28;20473;-73
2024/01/09 17:57:34;;;;;;;22.47;10.70;;;;;;;;;;4975558;28;20942;-74
2024/01/09 18:00:00;;;;;;;28.63;10.10;;;;;;;;;;4975579;28;20551;-74
2024/01/09 18:02:26;;;;;;;26.63;11.53;;;;;;;;;;4975702;28;20974;-73
2024/01/09 18:04:53;;;;;;;28.97;11.33;;;;;;;;;;4975648;28;20427;-74
2024/01/09 18:07:19;;;;;;;30.00;11.53;;;;;;;;;;4975378;28;20532;-73
2024/01/09 18:09:45;;;;;;;29.83;11.63;;;;;;;;;;4979209;28;20416;-73
2024/01/09 18:12:11;;;;;;;25.40;10.90;;;;;;;;;;4978200;28;20883;-75
2024/01/09 18:14:37;;;;;;;24.53;11.60;;;;;;;;;;4977416;28;20416;-73
2024/01/09 18:17:06;;;;;;;33.33;13.00;;;;;;;;;;4976817;28;20416;-72
2024/01/09 18:19:32;;;;;;;29.57;14.33;;;;;;;;;;4974554;28;20997;-72
2024/01/09 18:21:58;;;;;;;30.13;12.17;;;;;;;;;;4974569;28;20424;-73
2024/01/09 18:24:25;;;;;;;31.30;12.07;;;;;;;;;;4978623;28;20426;-73
2024/01/09 18:26:51;;;;;;;29.33;12.43;;;;;;;;;;4979201;28;20559;-72
2024/01/09 18:29:17;;;;;;;29.53;14.30;;;;;;;;;;4977385;28;20421;-74
2024/01/09 18:31:44;;;;;;;25.90;11.80;;;;;;;;;;4977564;28;20429;-73
2024/01/09 18:34:10;;;;;;;27.40;13.50;;;;;;;;;;4982874;28;20416;-74
2024/01/09 18:36:39;;;;;;;27.53;12.67;;;;;;;;;;4978945;28;20585;-73
2024/01/09 18:39:12;;;;;;;30.97;12.70;;;;;;;;;;4973534;28;20423;-72
2024/01/09 18:41:38;;;;;;;32.00;12.43;;;;;;;;;;4974699;28;20419;-72
2024/01/09 18:44:04;;;;;;;29.00;13.60;;;;;;;;;;4974600;28;20416;-72
2024/01/09 18:46:31;;;;;;;31.03;13.30;;;;;;;;;;4975332;28;20439;-72
2024/01/09 18:48:57;;;;;;;31.37;12.67;;;;;;;;;;4975758;28;20412;-72
2024/01/09 18:51:23;;;;;;;37.47;13.87;;;;;;;;;;4973869;28;20443;-74
2024/01/09 18:53:55;;;;;;;29.10;13.10;;;;;;;;;;4967424;28;20412;-76
2024/01/09 18:56:21;;;;;;;27.67;11.83;;;;;;;;;;4971145;28;20451;-79
2024/01/09 18:58:47;;;;;;;36.83;14.00;;;;;;;;;;4969081;28;20997;-73
2024/01/09 19:01:13;;;;;;;32.53;12.97;;;;;;;;;;4954003;28;20468;-73
2024/01/09 19:03:39;;;;;;;31.33;14.13;;;;;;;;;;4955427;28;20416;-74
2024/01/09 19:06:06;;;;;;;33.33;13.60;;;;;;;;;;4969572;28;20446;-74
2024/01/09 19:08:32;;;;;;;31.40;13.03;;;;;;;;;;4973959;28;20426;-74
2024/01/09 19:10:58;;;;;;;31.30;12.13;;;;;;;;;;4973322;28;20416;-73
2024/01/09 19:13:24;;;;;;;26.77;12.57;;;;;;;;;;4976358;28;20764;-72
2024/01/09 19:15:50;;;;;;;26.37;13.27;;;;;;;;;;4974549;28;20459;-72
2024/01/09 19:18:16;;;;;;;33.50;13.87;;;;;;;;;;4974187;28;20433;-72
2024/01/09 19:20:42;;;;;;;31.43;13.73;;;;;;;;;;4974306;28;20490;-73
2024/01/09 19:23:08;;;;;;;39.20;13.83;;;;;;;;;;4973001;28;21071;-73
2024/01/09 19:25:34;;;;;;;25.63;11.87;;;;;;;;;;4973850;28;20939;-73
2024/01/09 19:28:00;;;;;;;32.27;14.00;;;;;;;;;;4974155;28;20423;-72
2024/01/09 19:30:26;;;;;;;33.53;15.63;;;;;;;;;;4974054;28;20442;-73
2024/01/09 19:32:52;;;;;;;40.13;15.00;;;;;;;;;;4985688;28;20426;-74
2024/01/09 19:35:18;;;;;;;32.83;15.80;;;;;;;;;;4981638;28;20436;-72
2024/01/09 19:37:44;;;;;;;42.07;17.17;;;;;;;;;;4984491;28;20416;-73
2024/01/09 19:40:10;;;;;;;40.70;16.97;;;;;;;;;;4982232;28;20468;-72
2024/01/09 19:42:37;;;;;;;43.57;17.70;;;;;;;;;;4968582;28;20472;-73
2024/01/09 19:45:04;;;;;;;45.80;20.30;;;;;;;;;;4958171;28;20460;-72
2024/01/09 19:47:30;;;;;;;46.37;17.80;;;;;;;;;;4958015;28;20412;-73
2024/01/09 19:49:56;;;;;;;48.07;17.83;;;;;;;;;;4955032;28;20761;-72
2024/01/09 19:52:22;;;;;;;37.00;15.90;;;;;;;;;;4954791;28;20425;-74
2024/01/09 19:54:48;;;;;;;44.03;16.20;;;;;;;;;;4954715;28;20534;-72
2024/01/09 19:57:16;;;;;;;37.87;16.53;;;;;;;;;;4953529;28;20420;-73
2024/01/09 19:59:42;;;;;;;33.63;15.80;;;;;;;;;;4954483;28;20472;-71
2024/01/09 20:02:08;;;;;;;37.90;15.47;;;;;;;;;;4954641;28;20412;-73
2024/01/09 20:04:34;;;;;;;38.33;15.43;;;;;;;;;;4954439;28;20500;-73
2024/01/09 20:07:00;;;;;;;44.93;16.80;;;;;;;;;;4954856;28;20631;-74
2024/01/09 20:09:27;;;;;;;42.13;15.17;;;;;;;;;;4968777;28;20423;-74
2024/01/09 20:11:54;;;;;;;32.27;14.23;;;;;;;;;;4973763;28;20430;-73
2024/01/09 20:14:20;;;;;;;32.37;14.43;;;;;;;;;;4973877;28;20428;-73
2024/01/09 20:16:46;;;;;;;39.13;16.33;;;;;;;;;;4972233;28;20451;-71